sensor_id;sensor_type;location;lat;lon;timestamp;P1;durP1;ratioP1;P2;durP2;ratioP2
64208;SDS011;50527;52.414;13.226;2023-06-10T00:01:43;3.85;;;1.23;;
64208;SDS011;50527;52.414;13.226;2023-06-10T00:04:13;3.10;;;1.20;;
64208;SDS011;50527;52.414;13.226;2023-06-10T00:06:39;6.63;;;1.52;;
64208;SDS011;50527;52.414;13.226;2023-06-10T00:09:05;4.85;;;1.40;;
64208;SDS011;50527;52.414;13.226;2023-06-10T00:11:35;3.63;;;1.02;;
64208;SDS011;50527;52.414;13.226;2023-06-10T00:14:01;3.47;;;1.10;;
64208;SDS011;50527;52.414;13.226;2023-06-10T00:16:26;7.72;;;1.20;;
64208;SDS011;50527;52.414;13.226;2023-06-10T00:18:52;5.70;;;1.30;;
64208;SDS011;50527;52.414;13.226;2023-06-10T00:21:20;3.55;;;1.20;;
64208;SDS011;50527;52.414;13.226;2023-06-10T00:23:46;2.92;;;1.20;;
64208;SDS011;50527;52.414;13.226;2023-06-10T00:26:12;3.65;;;1.10;;
64208;SDS011;50527;52.414;13.226;2023-06-10T00:28:37;7.15;;;1.50;;
64208;SDS011;50527;52.414;13.226;2023-06-10T00:31:03;5.93;;;1.25;;
64208;SDS011;50527;52.414;13.226;2023-06-10T00:33:29;6.30;;;1.25;;
64208;SDS011;50527;52.414;13.226;2023-06-10T00:35:55;5.15;;;1.30;;
64208;SDS011;50527;52.414;13.226;2023-06-10T00:38:20;5.70;;;1.20;;
64208;SDS011;50527;52.414;13.226;2023-06-10T00:40:46;4.88;;;1.45;;
64208;SDS011;50527;52.414;13.226;2023-06-10T00:43:11;5.00;;;1.27;;
64208;SDS011;50527;52.414;13.226;2023-06-10T00:48:46;5.15;;;1.20;;
64208;SDS011;50527;52.414;13.226;2023-06-10T00:51:12;6.22;;;1.10;;
64208;SDS011;50527;52.414;13.226;2023-06-10T00:53:39;4.97;;;1.40;;
64208;SDS011;50527;52.414;13.226;2023-06-10T00:56:06;5.13;;;1.40;;
64208;SDS011;50527;52.414;13.226;2023-06-10T00:58:32;4.95;;;1.30;;
64208;SDS011;50527;52.414;13.226;2023-06-10T01:00:57;3.70;;;1.30;;
64208;SDS011;50527;52.414;13.226;2023-06-10T01:03:23;3.42;;;1.20;;
64208;SDS011;50527;52.414;13.226;2023-06-10T01:05:55;4.95;;;1.20;;
64208;SDS011;50527;52.414;13.226;2023-06-10T01:08:39;4.93;;;1.02;;
64208;SDS011;50527;52.414;13.226;2023-06-10T01:11:14;4.30;;;1.20;;
64208;SDS011;50527;52.414;13.226;2023-06-10T01:14:08;3.38;;;1.05;;
64208;SDS011;50527;52.414;13.226;2023-06-10T01:16:34;5.30;;;1.45;;
64208;SDS011;50527;52.414;13.226;2023-06-10T01:19:01;4.30;;;1.23;;
64208;SDS011;50527;52.414;13.226;2023-06-10T01:21:27;5.07;;;1.23;;
64208;SDS011;50527;52.414;13.226;2023-06-10T01:23:53;10.07;;;1.40;;
64208;SDS011;50527;52.414;13.226;2023-06-10T01:26:22;5.38;;;1.20;;
64208;SDS011;50527;52.414;13.226;2023-06-10T01:29:07;4.90;;;1.17;;
64208;SDS011;50527;52.414;13.226;2023-06-10T01:31:48;8.80;;;1.67;;
64208;SDS011;50527;52.414;13.226;2023-06-10T01:34:19;5.10;;;1.08;;
64208;SDS011;50527;52.414;13.226;2023-06-10T01:36:47;4.15;;;1.17;;
64208;SDS011;50527;52.414;13.226;2023-06-10T01:39:17;5.72;;;1.42;;
64208;SDS011;50527;52.414;13.226;2023-06-10T01:41:46;12.57;;;1.50;;
64208;SDS011;50527;52.414;13.226;2023-06-10T01:44:13;5.57;;;1.52;;
64208;SDS011;50527;52.414;13.226;2023-06-10T01:46:46;8.90;;;1.35;;
64208;SDS011;50527;52.414;13.226;2023-06-10T01:49:12;6.10;;;1.10;;
64208;SDS011;50527;52.414;13.226;2023-06-10T01:51:38;5.15;;;1.30;;
64208;SDS011;50527;52.414;13.226;2023-06-10T01:54:03;10.45;;;1.80;;
64208;SDS011;50527;52.414;13.226;2023-06-10T01:56:29;5.65;;;1.30;;
64208;SDS011;50527;52.414;13.226;2023-06-10T01:58:54;4.70;;;1.27;;
64208;SDS011;50527;52.414;13.226;2023-06-10T02:01:24;7.53;;;1.27;;
64208;SDS011;50527;52.414;13.226;2023-06-10T02:03:50;5.38;;;1.10;;
64208;SDS011;50527;52.414;13.226;2023-06-10T02:06:15;2.85;;;1.10;;
64208;SDS011;50527;52.414;13.226;2023-06-10T02:08:40;3.03;;;1.10;;
64208;SDS011;50527;52.414;13.226;2023-06-10T02:11:06;6.65;;;1.30;;
64208;SDS011;50527;52.414;13.226;2023-06-10T02:13:32;4.75;;;1.30;;
64208;SDS011;50527;52.414;13.226;2023-06-10T02:15:58;5.78;;;1.20;;
64208;SDS011;50527;52.414;13.226;2023-06-10T02:18:24;6.78;;;1.48;;
64208;SDS011;50527;52.414;13.226;2023-06-10T02:20:52;5.43;;;1.42;;
64208;SDS011;50527;52.414;13.226;2023-06-10T02:23:17;6.95;;;1.40;;
64208;SDS011;50527;52.414;13.226;2023-06-10T02:25:43;7.13;;;1.70;;
64208;SDS011;50527;52.414;13.226;2023-06-10T02:28:08;6.85;;;1.38;;
64208;SDS011;50527;52.414;13.226;2023-06-10T02:30:34;4.78;;;1.17;;
64208;SDS011;50527;52.414;13.226;2023-06-10T02:32:59;6.28;;;1.20;;
64208;SDS011;50527;52.414;13.226;2023-06-10T02:35:26;3.95;;;1.15;;
64208;SDS011;50527;52.414;13.226;2023-06-10T02:37:51;6.75;;;1.50;;
64208;SDS011;50527;52.414;13.226;2023-06-10T02:40:16;4.72;;;1.15;;
64208;SDS011;50527;52.414;13.226;2023-06-10T02:42:42;4.88;;;1.40;;
64208;SDS011;50527;52.414;13.226;2023-06-10T02:45:07;5.50;;;1.23;;
64208;SDS011;50527;52.414;13.226;2023-06-10T02:47:33;5.05;;;1.20;;
64208;SDS011;50527;52.414;13.226;2023-06-10T02:49:59;5.25;;;1.58;;
64208;SDS011;50527;52.414;13.226;2023-06-10T02:52:24;4.35;;;1.10;;
64208;SDS011;50527;52.414;13.226;2023-06-10T02:54:50;4.70;;;1.30;;
64208;SDS011;50527;52.414;13.226;2023-06-10T02:57:15;4.85;;;1.40;;
64208;SDS011;50527;52.414;13.226;2023-06-10T02:59:41;7.55;;;1.00;;
64208;SDS011;50527;52.414;13.226;2023-06-10T03:02:06;4.80;;;1.40;;
64208;SDS011;50527;52.414;13.226;2023-06-10T03:04:32;7.80;;;1.20;;
64208;SDS011;50527;52.414;13.226;2023-06-10T03:06:58;4.88;;;1.40;;
64208;SDS011;50527;52.414;13.226;2023-06-10T03:09:25;6.18;;;1.27;;
64208;SDS011;50527;52.414;13.226;2023-06-10T03:11:50;8.35;;;1.50;;
64208;SDS011;50527;52.414;13.226;2023-06-10T03:14:16;5.60;;;1.55;;
64208;SDS011;50527;52.414;13.226;2023-06-10T03:16:41;6.53;;;1.20;;
64208;SDS011;50527;52.414;13.226;2023-06-10T03:19:07;6.93;;;1.20;;
64208;SDS011;50527;52.414;13.226;2023-06-10T03:21:33;8.00;;;1.33;;
64208;SDS011;50527;52.414;13.226;2023-06-10T03:23:59;5.22;;;1.25;;
64208;SDS011;50527;52.414;13.226;2023-06-10T03:26:26;3.40;;;1.33;;
64208;SDS011;50527;52.414;13.226;2023-06-10T03:28:52;6.05;;;1.23;;
64208;SDS011;50527;52.414;13.226;2023-06-10T03:31:18;3.30;;;0.98;;
64208;SDS011;50527;52.414;13.226;2023-06-10T03:33:43;3.55;;;1.48;;
64208;SDS011;50527;52.414;13.226;2023-06-10T03:36:09;4.70;;;1.20;;
64208;SDS011;50527;52.414;13.226;2023-06-10T03:38:34;6.32;;;1.17;;
64208;SDS011;50527;52.414;13.226;2023-06-10T03:41:00;5.50;;;1.30;;
64208;SDS011;50527;52.414;13.226;2023-06-10T03:43:26;3.08;;;1.10;;
64208;SDS011;50527;52.414;13.226;2023-06-10T03:45:52;3.78;;;1.25;;
64208;SDS011;50527;52.414;13.226;2023-06-10T03:48:18;4.85;;;1.45;;
64208;SDS011;50527;52.414;13.226;2023-06-10T03:50:43;5.72;;;1.40;;
64208;SDS011;50527;52.414;13.226;2023-06-10T03:53:09;3.92;;;1.20;;
64208;SDS011;50527;52.414;13.226;2023-06-10T03:55:35;7.03;;;1.30;;
64208;SDS011;50527;52.414;13.226;2023-06-10T03:58:01;4.80;;;1.20;;
64208;SDS011;50527;52.414;13.226;2023-06-10T04:00:26;4.90;;;1.10;;
64208;SDS011;50527;52.414;13.226;2023-06-10T04:02:52;5.05;;;1.35;;
64208;SDS011;50527;52.414;13.226;2023-06-10T04:05:18;3.67;;;1.23;;
64208;SDS011;50527;52.414;13.226;2023-06-10T04:07:46;7.78;;;1.63;;
64208;SDS011;50527;52.414;13.226;2023-06-10T04:10:13;6.10;;;1.38;;
64208;SDS011;50527;52.414;13.226;2023-06-10T04:12:39;7.07;;;1.50;;
64208;SDS011;50527;52.414;13.226;2023-06-10T04:15:06;6.00;;;1.63;;
64208;SDS011;50527;52.414;13.226;2023-06-10T04:17:32;4.43;;;1.30;;
64208;SDS011;50527;52.414;13.226;2023-06-10T04:19:57;6.65;;;2.40;;
64208;SDS011;50527;52.414;13.226;2023-06-10T04:22:24;4.35;;;1.30;;
64208;SDS011;50527;52.414;13.226;2023-06-10T04:24:50;5.13;;;1.40;;
64208;SDS011;50527;52.414;13.226;2023-06-10T04:27:15;7.03;;;1.35;;
64208;SDS011;50527;52.414;13.226;2023-06-10T04:29:41;5.38;;;1.35;;
64208;SDS011;50527;52.414;13.226;2023-06-10T04:32:06;3.15;;;1.13;;
64208;SDS011;50527;52.414;13.226;2023-06-10T04:34:32;5.85;;;1.40;;
64208;SDS011;50527;52.414;13.226;2023-06-10T04:36:58;6.93;;;1.48;;
64208;SDS011;50527;52.414;13.226;2023-06-10T04:39:24;7.18;;;1.35;;
64208;SDS011;50527;52.414;13.226;2023-06-10T04:41:49;4.10;;;1.38;;
64208;SDS011;50527;52.414;13.226;2023-06-10T04:44:15;6.35;;;1.52;;
64208;SDS011;50527;52.414;13.226;2023-06-10T04:46:40;6.75;;;1.75;;
64208;SDS011;50527;52.414;13.226;2023-06-10T04:49:06;7.60;;;1.80;;
64208;SDS011;50527;52.414;13.226;2023-06-10T04:51:31;3.67;;;1.00;;
64208;SDS011;50527;52.414;13.226;2023-06-10T04:53:57;7.22;;;1.83;;
64208;SDS011;50527;52.414;13.226;2023-06-10T04:56:23;6.78;;;1.50;;
64208;SDS011;50527;52.414;13.226;2023-06-10T04:58:49;8.13;;;1.52;;
64208;SDS011;50527;52.414;13.226;2023-06-10T05:01:14;6.50;;;1.40;;
64208;SDS011;50527;52.414;13.226;2023-06-10T05:03:40;5.00;;;1.20;;
64208;SDS011;50527;52.414;13.226;2023-06-10T05:06:06;5.45;;;1.15;;
64208;SDS011;50527;52.414;13.226;2023-06-10T05:08:31;7.90;;;1.40;;
64208;SDS011;50527;52.414;13.226;2023-06-10T05:13:23;2.50;;;1.15;;
64208;SDS011;50527;52.414;13.226;2023-06-10T05:15:48;8.45;;;1.70;;
64208;SDS011;50527;52.414;13.226;2023-06-10T05:18:14;3.88;;;1.40;;
64208;SDS011;50527;52.414;13.226;2023-06-10T05:20:39;6.32;;;1.38;;
64208;SDS011;50527;52.414;13.226;2023-06-10T05:23:05;8.00;;;1.63;;
64208;SDS011;50527;52.414;13.226;2023-06-10T05:25:32;4.72;;;1.80;;
64208;SDS011;50527;52.414;13.226;2023-06-10T05:27:58;4.68;;;1.77;;
64208;SDS011;50527;52.414;13.226;2023-06-10T05:30:24;9.80;;;2.10;;
64208;SDS011;50527;52.414;13.226;2023-06-10T05:32:50;10.38;;;1.80;;
64208;SDS011;50527;52.414;13.226;2023-06-10T05:35:17;5.72;;;1.40;;
64208;SDS011;50527;52.414;13.226;2023-06-10T05:37:43;4.20;;;1.73;;
64208;SDS011;50527;52.414;13.226;2023-06-10T05:40:09;7.00;;;1.70;;
64208;SDS011;50527;52.414;13.226;2023-06-10T05:42:35;3.92;;;1.73;;
64208;SDS011;50527;52.414;13.226;2023-06-10T05:45:01;8.90;;;1.65;;
64208;SDS011;50527;52.414;13.226;2023-06-10T05:47:27;4.85;;;1.48;;
64208;SDS011;50527;52.414;13.226;2023-06-10T05:49:53;6.50;;;1.75;;
64208;SDS011;50527;52.414;13.226;2023-06-10T05:52:18;6.13;;;1.70;;
64208;SDS011;50527;52.414;13.226;2023-06-10T05:54:43;3.42;;;1.33;;
64208;SDS011;50527;52.414;13.226;2023-06-10T05:57:09;5.75;;;1.60;;
64208;SDS011;50527;52.414;13.226;2023-06-10T05:59:35;5.43;;;1.40;;
64208;SDS011;50527;52.414;13.226;2023-06-10T06:02:00;6.72;;;1.80;;
64208;SDS011;50527;52.414;13.226;2023-06-10T06:04:26;8.90;;;1.70;;
64208;SDS011;50527;52.414;13.226;2023-06-10T06:06:51;5.90;;;1.30;;
64208;SDS011;50527;52.414;13.226;2023-06-10T06:09:17;4.72;;;1.50;;
64208;SDS011;50527;52.414;13.226;2023-06-10T06:11:42;5.70;;;1.50;;
64208;SDS011;50527;52.414;13.226;2023-06-10T06:14:08;8.30;;;1.85;;
64208;SDS011;50527;52.414;13.226;2023-06-10T06:16:33;4.63;;;1.52;;
64208;SDS011;50527;52.414;13.226;2023-06-10T06:18:59;4.13;;;1.42;;
64208;SDS011;50527;52.414;13.226;2023-06-10T06:21:24;6.65;;;1.75;;
64208;SDS011;50527;52.414;13.226;2023-06-10T06:23:50;4.40;;;1.70;;
64208;SDS011;50527;52.414;13.226;2023-06-10T06:26:15;5.50;;;1.50;;
64208;SDS011;50527;52.414;13.226;2023-06-10T06:28:41;8.40;;;1.65;;
64208;SDS011;50527;52.414;13.226;2023-06-10T06:31:06;9.23;;;1.75;;
64208;SDS011;50527;52.414;13.226;2023-06-10T06:33:32;5.35;;;1.80;;
64208;SDS011;50527;52.414;13.226;2023-06-10T06:35:58;10.52;;;1.75;;
64208;SDS011;50527;52.414;13.226;2023-06-10T06:38:25;8.88;;;2.00;;
64208;SDS011;50527;52.414;13.226;2023-06-10T06:40:50;3.70;;;1.73;;
64208;SDS011;50527;52.414;13.226;2023-06-10T06:43:16;4.22;;;1.70;;
64208;SDS011;50527;52.414;13.226;2023-06-10T06:45:43;4.85;;;1.65;;
64208;SDS011;50527;52.414;13.226;2023-06-10T06:48:10;6.20;;;1.88;;
64208;SDS011;50527;52.414;13.226;2023-06-10T06:50:36;4.50;;;1.70;;
64208;SDS011;50527;52.414;13.226;2023-06-10T06:53:01;6.13;;;2.08;;
64208;SDS011;50527;52.414;13.226;2023-06-10T06:55:27;9.85;;;1.77;;
64208;SDS011;50527;52.414;13.226;2023-06-10T06:57:53;6.25;;;1.83;;
64208;SDS011;50527;52.414;13.226;2023-06-10T07:00:18;6.07;;;1.60;;
64208;SDS011;50527;52.414;13.226;2023-06-10T07:02:44;4.60;;;1.73;;
64208;SDS011;50527;52.414;13.226;2023-06-10T07:05:09;5.55;;;1.80;;
64208;SDS011;50527;52.414;13.226;2023-06-10T07:07:35;4.82;;;1.60;;
64208;SDS011;50527;52.414;13.226;2023-06-10T07:10:00;4.35;;;1.55;;
64208;SDS011;50527;52.414;13.226;2023-06-10T07:12:26;6.35;;;2.13;;
64208;SDS011;50527;52.414;13.226;2023-06-10T07:14:52;5.78;;;1.70;;
64208;SDS011;50527;52.414;13.226;2023-06-10T07:17:17;6.60;;;1.80;;
64208;SDS011;50527;52.414;13.226;2023-06-10T07:19:43;6.50;;;1.75;;
64208;SDS011;50527;52.414;13.226;2023-06-10T07:22:09;8.27;;;2.08;;
64208;SDS011;50527;52.414;13.226;2023-06-10T07:24:35;5.32;;;1.67;;
64208;SDS011;50527;52.414;13.226;2023-06-10T07:27:00;8.15;;;2.00;;
64208;SDS011;50527;52.414;13.226;2023-06-10T07:29:26;6.78;;;1.73;;
64208;SDS011;50527;52.414;13.226;2023-06-10T07:31:51;3.40;;;1.70;;
64208;SDS011;50527;52.414;13.226;2023-06-10T07:34:18;4.32;;;1.60;;
64208;SDS011;50527;52.414;13.226;2023-06-10T07:36:43;4.65;;;1.73;;
64208;SDS011;50527;52.414;13.226;2023-06-10T07:39:09;7.93;;;1.90;;
64208;SDS011;50527;52.414;13.226;2023-06-10T07:41:35;7.82;;;2.13;;
64208;SDS011;50527;52.414;13.226;2023-06-10T07:44:00;4.93;;;1.88;;
64208;SDS011;50527;52.414;13.226;2023-06-10T07:46:26;4.32;;;1.70;;
64208;SDS011;50527;52.414;13.226;2023-06-10T07:48:53;6.60;;;1.85;;
64208;SDS011;50527;52.414;13.226;2023-06-10T07:51:20;5.85;;;1.75;;
64208;SDS011;50527;52.414;13.226;2023-06-10T07:53:46;7.47;;;2.00;;
64208;SDS011;50527;52.414;13.226;2023-06-10T07:56:12;3.92;;;1.35;;
64208;SDS011;50527;52.414;13.226;2023-06-10T07:58:37;6.38;;;2.00;;
64208;SDS011;50527;52.414;13.226;2023-06-10T08:01:03;5.63;;;1.80;;
64208;SDS011;50527;52.414;13.226;2023-06-10T08:03:28;8.27;;;2.00;;
64208;SDS011;50527;52.414;13.226;2023-06-10T08:05:54;6.70;;;2.10;;
64208;SDS011;50527;52.414;13.226;2023-06-10T08:08:19;5.55;;;1.90;;
64208;SDS011;50527;52.414;13.226;2023-06-10T08:10:45;4.53;;;1.75;;
64208;SDS011;50527;52.414;13.226;2023-06-10T08:13:10;5.65;;;2.17;;
64208;SDS011;50527;52.414;13.226;2023-06-10T08:15:36;7.15;;;1.90;;
64208;SDS011;50527;52.414;13.226;2023-06-10T08:18:01;8.00;;;1.98;;
64208;SDS011;50527;52.414;13.226;2023-06-10T08:20:27;5.43;;;2.08;;
64208;SDS011;50527;52.414;13.226;2023-06-10T08:22:52;6.40;;;1.80;;
64208;SDS011;50527;52.414;13.226;2023-06-10T08:25:18;5.55;;;1.85;;
64208;SDS011;50527;52.414;13.226;2023-06-10T08:27:43;6.45;;;1.95;;
64208;SDS011;50527;52.414;13.226;2023-06-10T08:30:09;6.13;;;1.90;;
64208;SDS011;50527;52.414;13.226;2023-06-10T08:32:35;6.53;;;1.98;;
64208;SDS011;50527;52.414;13.226;2023-06-10T08:35:01;8.15;;;2.00;;
64208;SDS011;50527;52.414;13.226;2023-06-10T08:37:27;6.70;;;1.80;;
64208;SDS011;50527;52.414;13.226;2023-06-10T08:39:52;11.40;;;2.13;;
64208;SDS011;50527;52.414;13.226;2023-06-10T08:42:34;6.47;;;2.00;;
64208;SDS011;50527;52.414;13.226;2023-06-10T08:45:07;11.10;;;1.92;;
64208;SDS011;50527;52.414;13.226;2023-06-10T08:47:42;6.97;;;1.90;;
64208;SDS011;50527;52.414;13.226;2023-06-10T08:50:10;2.85;;;1.65;;
64208;SDS011;50527;52.414;13.226;2023-06-10T08:52:36;4.05;;;1.90;;
64208;SDS011;50527;52.414;13.226;2023-06-10T08:55:04;5.63;;;2.00;;
64208;SDS011;50527;52.414;13.226;2023-06-10T08:57:35;4.72;;;1.67;;
64208;SDS011;50527;52.414;13.226;2023-06-10T09:00:02;12.77;;;2.13;;
64208;SDS011;50527;52.414;13.226;2023-06-10T09:02:29;6.28;;;1.80;;
64208;SDS011;50527;52.414;13.226;2023-06-10T09:05:00;6.72;;;1.83;;
64208;SDS011;50527;52.414;13.226;2023-06-10T09:07:26;10.68;;;2.15;;
64208;SDS011;50527;52.414;13.226;2023-06-10T09:09:52;6.40;;;1.92;;
64208;SDS011;50527;52.414;13.226;2023-06-10T09:12:19;5.68;;;1.77;;
64208;SDS011;50527;52.414;13.226;2023-06-10T09:14:45;6.90;;;2.17;;
64208;SDS011;50527;52.414;13.226;2023-06-10T09:17:10;7.60;;;1.80;;
64208;SDS011;50527;52.414;13.226;2023-06-10T09:19:36;7.25;;;1.83;;
64208;SDS011;50527;52.414;13.226;2023-06-10T09:22:03;8.85;;;2.08;;
64208;SDS011;50527;52.414;13.226;2023-06-10T09:24:29;6.82;;;1.92;;
64208;SDS011;50527;52.414;13.226;2023-06-10T09:27:02;4.53;;;1.77;;
64208;SDS011;50527;52.414;13.226;2023-06-10T09:29:30;6.82;;;1.98;;
64208;SDS011;50527;52.414;13.226;2023-06-10T09:31:55;6.78;;;2.00;;
64208;SDS011;50527;52.414;13.226;2023-06-10T09:34:24;6.95;;;1.75;;
64208;SDS011;50527;52.414;13.226;2023-06-10T09:36:50;5.15;;;1.85;;
64208;SDS011;50527;52.414;13.226;2023-06-10T09:39:16;5.95;;;1.98;;
64208;SDS011;50527;52.414;13.226;2023-06-10T09:41:43;7.97;;;1.75;;
64208;SDS011;50527;52.414;13.226;2023-06-10T09:44:16;4.60;;;1.90;;
64208;SDS011;50527;52.414;13.226;2023-06-10T09:46:46;8.23;;;1.85;;
64208;SDS011;50527;52.414;13.226;2023-06-10T09:49:13;8.35;;;1.85;;
64208;SDS011;50527;52.414;13.226;2023-06-10T09:51:52;5.25;;;1.50;;
64208;SDS011;50527;52.414;13.226;2023-06-10T09:54:18;2.88;;;1.55;;
64208;SDS011;50527;52.414;13.226;2023-06-10T09:56:46;4.00;;;1.67;;
64208;SDS011;50527;52.414;13.226;2023-06-10T09:59:12;5.63;;;1.52;;
64208;SDS011;50527;52.414;13.226;2023-06-10T10:01:38;6.05;;;1.70;;
64208;SDS011;50527;52.414;13.226;2023-06-10T10:04:04;3.85;;;1.55;;
64208;SDS011;50527;52.414;13.226;2023-06-10T10:06:30;9.73;;;1.70;;
64208;SDS011;50527;52.414;13.226;2023-06-10T10:08:55;7.07;;;1.40;;
64208;SDS011;50527;52.414;13.226;2023-06-10T10:11:21;3.10;;;1.45;;
64208;SDS011;50527;52.414;13.226;2023-06-10T10:13:48;7.65;;;1.88;;
64208;SDS011;50527;52.414;13.226;2023-06-10T10:16:16;8.30;;;1.60;;
64208;SDS011;50527;52.414;13.226;2023-06-10T10:18:54;9.77;;;1.70;;
64208;SDS011;50527;52.414;13.226;2023-06-10T10:21:27;6.68;;;1.67;;
64208;SDS011;50527;52.414;13.226;2023-06-10T10:24:05;6.70;;;1.83;;
64208;SDS011;50527;52.414;13.226;2023-06-10T10:26:37;5.53;;;1.50;;
64208;SDS011;50527;52.414;13.226;2023-06-10T10:29:06;7.13;;;1.75;;
64208;SDS011;50527;52.414;13.226;2023-06-10T10:31:33;8.60;;;1.52;;
64208;SDS011;50527;52.414;13.226;2023-06-10T10:34:02;6.28;;;1.80;;
64208;SDS011;50527;52.414;13.226;2023-06-10T10:36:31;7.55;;;1.75;;
64208;SDS011;50527;52.414;13.226;2023-06-10T10:38:57;8.80;;;2.00;;
64208;SDS011;50527;52.414;13.226;2023-06-10T10:41:23;7.18;;;1.60;;
64208;SDS011;50527;52.414;13.226;2023-06-10T10:43:51;6.85;;;1.77;;
64208;SDS011;50527;52.414;13.226;2023-06-10T10:46:18;7.25;;;1.60;;
64208;SDS011;50527;52.414;13.226;2023-06-10T10:48:43;6.07;;;1.73;;
64208;SDS011;50527;52.414;13.226;2023-06-10T10:51:10;2.92;;;1.52;;
64208;SDS011;50527;52.414;13.226;2023-06-10T10:53:37;5.32;;;1.77;;
64208;SDS011;50527;52.414;13.226;2023-06-10T10:56:07;4.60;;;1.70;;
64208;SDS011;50527;52.414;13.226;2023-06-10T10:58:40;4.82;;;2.05;;
64208;SDS011;50527;52.414;13.226;2023-06-10T11:01:10;6.22;;;1.90;;
64208;SDS011;50527;52.414;13.226;2023-06-10T11:03:41;4.80;;;1.63;;
64208;SDS011;50527;52.414;13.226;2023-06-10T11:06:12;5.10;;;1.55;;
64208;SDS011;50527;52.414;13.226;2023-06-10T11:16:27;3.92;;;1.30;;
64208;SDS011;50527;52.414;13.226;2023-06-10T11:18:53;2.92;;;1.10;;
64208;SDS011;50527;52.414;13.226;2023-06-10T11:21:20;4.53;;;1.60;;
64208;SDS011;50527;52.414;13.226;2023-06-10T11:23:45;3.25;;;1.20;;
64208;SDS011;50527;52.414;13.226;2023-06-10T11:26:18;2.65;;;1.42;;
64208;SDS011;50527;52.414;13.226;2023-06-10T11:31:32;3.40;;;1.35;;
64208;SDS011;50527;52.414;13.226;2023-06-10T11:34:07;6.53;;;1.40;;
64208;SDS011;50527;52.414;13.226;2023-06-10T11:36:34;2.33;;;1.23;;
64208;SDS011;50527;52.414;13.226;2023-06-10T11:39:05;5.00;;;1.60;;
64208;SDS011;50527;52.414;13.226;2023-06-10T11:41:32;2.88;;;1.38;;
64208;SDS011;50527;52.414;13.226;2023-06-10T11:44:02;2.50;;;1.20;;
64208;SDS011;50527;52.414;13.226;2023-06-10T11:46:29;3.67;;;1.30;;
64208;SDS011;50527;52.414;13.226;2023-06-10T11:48:55;2.17;;;1.17;;
64208;SDS011;50527;52.414;13.226;2023-06-10T11:51:22;3.60;;;1.30;;
64208;SDS011;50527;52.414;13.226;2023-06-10T11:53:50;2.83;;;1.60;;
64208;SDS011;50527;52.414;13.226;2023-06-10T11:56:28;5.10;;;1.75;;
64208;SDS011;50527;52.414;13.226;2023-06-10T11:58:56;3.47;;;1.52;;
64208;SDS011;50527;52.414;13.226;2023-06-10T12:01:25;4.30;;;1.70;;
64208;SDS011;50527;52.414;13.226;2023-06-10T12:06:23;4.23;;;1.60;;
64208;SDS011;50527;52.414;13.226;2023-06-10T12:08:49;3.50;;;1.50;;
64208;SDS011;50527;52.414;13.226;2023-06-10T12:11:14;3.63;;;1.73;;
64208;SDS011;50527;52.414;13.226;2023-06-10T12:13:45;4.38;;;1.45;;
64208;SDS011;50527;52.414;13.226;2023-06-10T12:16:14;3.33;;;1.40;;
64208;SDS011;50527;52.414;13.226;2023-06-10T12:18:41;5.35;;;1.45;;
64208;SDS011;50527;52.414;13.226;2023-06-10T12:21:18;7.70;;;1.67;;
64208;SDS011;50527;52.414;13.226;2023-06-10T12:26:42;3.25;;;1.40;;
64208;SDS011;50527;52.414;13.226;2023-06-10T12:29:15;5.72;;;1.60;;
64208;SDS011;50527;52.414;13.226;2023-06-10T12:34:40;5.13;;;1.60;;
64208;SDS011;50527;52.414;13.226;2023-06-10T12:37:09;6.57;;;1.75;;
64208;SDS011;50527;52.414;13.226;2023-06-10T12:39:39;3.70;;;1.40;;
64208;SDS011;50527;52.414;13.226;2023-06-10T12:42:06;5.32;;;1.40;;
64208;SDS011;50527;52.414;13.226;2023-06-10T12:44:35;2.30;;;1.33;;
64208;SDS011;50527;52.414;13.226;2023-06-10T12:47:06;3.28;;;1.23;;
64208;SDS011;50527;52.414;13.226;2023-06-10T12:49:33;3.85;;;1.40;;
64208;SDS011;50527;52.414;13.226;2023-06-10T12:52:00;3.88;;;1.30;;
64208;SDS011;50527;52.414;13.226;2023-06-10T12:54:26;3.53;;;1.20;;
64208;SDS011;50527;52.414;13.226;2023-06-10T13:00:13;5.35;;;1.30;;
64208;SDS011;50527;52.414;13.226;2023-06-10T13:05:45;6.18;;;1.48;;
64208;SDS011;50527;52.414;13.226;2023-06-10T13:08:11;4.80;;;1.52;;
64208;SDS011;50527;52.414;13.226;2023-06-10T13:10:36;5.88;;;1.65;;
64208;SDS011;50527;52.414;13.226;2023-06-10T13:13:02;3.28;;;1.55;;
64208;SDS011;50527;52.414;13.226;2023-06-10T13:15:31;6.20;;;1.45;;
64208;SDS011;50527;52.414;13.226;2023-06-10T13:18:01;5.35;;;1.67;;
64208;SDS011;50527;52.414;13.226;2023-06-10T13:20:28;4.18;;;1.92;;
64208;SDS011;50527;52.414;13.226;2023-06-10T13:22:54;6.70;;;1.75;;
64208;SDS011;50527;52.414;13.226;2023-06-10T13:25:19;3.75;;;1.80;;
64208;SDS011;50527;52.414;13.226;2023-06-10T13:27:45;8.07;;;1.63;;
64208;SDS011;50527;52.414;13.226;2023-06-10T13:30:10;6.95;;;1.60;;
64208;SDS011;50527;52.414;13.226;2023-06-10T13:32:36;6.40;;;1.85;;
64208;SDS011;50527;52.414;13.226;2023-06-10T13:35:02;3.72;;;1.92;;
64208;SDS011;50527;52.414;13.226;2023-06-10T13:37:28;3.38;;;1.80;;
64208;SDS011;50527;52.414;13.226;2023-06-10T13:39:54;4.85;;;1.55;;
64208;SDS011;50527;52.414;13.226;2023-06-10T13:42:20;5.95;;;1.70;;
64208;SDS011;50527;52.414;13.226;2023-06-10T13:44:46;7.10;;;1.80;;
64208;SDS011;50527;52.414;13.226;2023-06-10T13:47:12;4.57;;;1.58;;
64208;SDS011;50527;52.414;13.226;2023-06-10T13:49:38;2.97;;;1.60;;
64208;SDS011;50527;52.414;13.226;2023-06-10T13:52:04;5.72;;;1.50;;
64208;SDS011;50527;52.414;13.226;2023-06-10T13:54:30;3.60;;;1.65;;
64208;SDS011;50527;52.414;13.226;2023-06-10T13:56:56;7.60;;;1.60;;
64208;SDS011;50527;52.414;13.226;2023-06-10T13:59:21;3.47;;;1.50;;
64208;SDS011;50527;52.414;13.226;2023-06-10T14:01:47;5.57;;;1.60;;
64208;SDS011;50527;52.414;13.226;2023-06-10T14:04:13;6.00;;;1.92;;
64208;SDS011;50527;52.414;13.226;2023-06-10T14:06:38;5.50;;;1.77;;
64208;SDS011;50527;52.414;13.226;2023-06-10T14:09:04;4.93;;;1.50;;
64208;SDS011;50527;52.414;13.226;2023-06-10T14:11:29;4.13;;;1.60;;
64208;SDS011;50527;52.414;13.226;2023-06-10T14:13:56;3.92;;;1.90;;
64208;SDS011;50527;52.414;13.226;2023-06-10T14:16:22;3.55;;;1.77;;
64208;SDS011;50527;52.414;13.226;2023-06-10T14:18:48;5.38;;;2.03;;
64208;SDS011;50527;52.414;13.226;2023-06-10T14:21:15;7.03;;;2.20;;
64208;SDS011;50527;52.414;13.226;2023-06-10T14:23:41;8.30;;;1.75;;
64208;SDS011;50527;52.414;13.226;2023-06-10T14:26:08;2.90;;;1.50;;
64208;SDS011;50527;52.414;13.226;2023-06-10T14:28:33;2.55;;;1.80;;
64208;SDS011;50527;52.414;13.226;2023-06-10T14:30:59;4.72;;;1.70;;
64208;SDS011;50527;52.414;13.226;2023-06-10T14:33:24;3.25;;;1.73;;
64208;SDS011;50527;52.414;13.226;2023-06-10T14:35:50;7.18;;;1.70;;
64208;SDS011;50527;52.414;13.226;2023-06-10T14:38:15;3.13;;;1.63;;
64208;SDS011;50527;52.414;13.226;2023-06-10T14:40:41;8.50;;;1.77;;
64208;SDS011;50527;52.414;13.226;2023-06-10T14:43:06;6.25;;;1.60;;
64208;SDS011;50527;52.414;13.226;2023-06-10T14:45:35;6.25;;;1.90;;
64208;SDS011;50527;52.414;13.226;2023-06-10T14:48:01;6.55;;;1.60;;
64208;SDS011;50527;52.414;13.226;2023-06-10T14:50:27;4.45;;;1.75;;
64208;SDS011;50527;52.414;13.226;2023-06-10T14:52:52;7.20;;;1.70;;
64208;SDS011;50527;52.414;13.226;2023-06-10T14:55:17;4.00;;;1.65;;
64208;SDS011;50527;52.414;13.226;2023-06-10T14:57:43;2.88;;;1.48;;
64208;SDS011;50527;52.414;13.226;2023-06-10T15:00:09;2.85;;;1.30;;
64208;SDS011;50527;52.414;13.226;2023-06-10T15:02:35;5.13;;;1.63;;